Time;durP1;ratioP1;P1;durP2;ratioP2;P2;SDS_P1;SDS_P2;PMS_P1;PMS_P2;Temp;Humidity;BMP_temperature;BMP_pressure;BME280_temperature;BME280_humidity;BME280_pressure;Samples;Min_cycle;Max_cycle;Signal;HPM_P1;HPM_P2
2023/07/17 00:06:00;;;;;;;7.33;1.90;;;;;;;25.84;58.11;100433.88;30863568;28;20099;-74
2023/07/17 00:21:02;;;;;;;2.63;1.63;;;;;;;25.41;59.28;100431.59;30854034;28;20106;-74
2023/07/17 00:36:04;;;;;;;3.97;1.92;;;;;;;25.12;60.92;100432.97;30861193;28;20428;-74
2023/07/17 00:51:06;;;;;;;5.85;3.80;;;;;;;25.06;61.84;100428.72;30871477;28;20490;-73
2023/07/17 01:06:08;;;;;;;4.38;2.50;;;;;;;24.89;63.67;100414.09;30878512;28;20074;-75
2023/07/17 01:21:13;;;;;;;3.25;2.30;;;;;;;24.69;65.26;100435.38;30872887;28;20086;-74
2023/07/17 01:36:15;;;;;;;4.07;2.72;;;;;;;24.78;65.96;100435.09;30876308;28;20145;-74
2023/07/17 01:51:17;;;;;;;5.85;2.90;;;;;;;24.40;67.77;100441.47;30868118;28;20072;-73
2023/07/17 02:06:20;;;;;;;5.97;2.88;;;;;;;24.37;69.35;100445.25;30872187;28;20081;-75
2023/07/17 02:21:22;;;;;;;4.82;2.63;;;;;;;24.33;70.18;100448.25;30866296;28;20139;-76
2023/07/17 02:36:24;;;;;;;4.72;3.10;;;;;;;24.52;70.67;100456.84;30867933;28;20493;-76
2023/07/17 02:51:26;;;;;;;5.40;3.33;;;;;;;24.65;71.79;100461.88;30869023;28;20070;-75
2023/07/17 03:06:28;;;;;;;4.05;2.70;;;;;;;24.74;71.37;100465.13;30863574;28;20137;-75
2023/07/17 03:21:30;;;;;;;5.20;3.20;;;;;;;24.95;71.36;100478.75;30860623;28;20138;-74
2023/07/17 03:36:32;;;;;;;7.65;3.75;;;;;;;25.27;70.47;100479.91;30856955;28;20083;-75
2023/07/17 03:51:34;;;;;;;5.30;3.38;;;;;;;25.80;69.52;100494.56;30860036;28;20057;-75
2023/07/17 04:06:36;;;;;;;8.80;4.30;;;;;;;26.22;69.49;100484.91;30857108;28;20058;-74
2023/07/17 04:21:38;;;;;;;9.30;5.05;;;;;;;27.13;68.10;100491.97;30869340;28;20054;-74
2023/07/17 04:36:40;;;;;;;12.80;6.50;;;;;;;27.69;66.45;100496.84;30882550;28;20066;-75
2023/07/17 04:51:42;;;;;;;19.83;6.90;;;;;;;28.25;65.92;100507.22;30879460;28;20568;-74
2023/07/17 05:06:44;;;;;;;12.00;6.70;;;;;;;28.80;65.82;100500.72;30878847;28;20085;-73
2023/07/17 05:21:46;;;;;;;12.50;4.30;;;;;;;29.68;63.34;100512.72;30872369;28;20386;-75
2023/07/17 05:36:49;;;;;;;9.27;4.50;;;;;;;30.38;63.30;100515.69;30864843;28;20129;-74
2023/07/17 05:51:50;;;;;;;6.10;4.30;;;;;;;30.90;61.95;100520.25;30866409;28;20316;-75
2023/07/17 06:06:53;;;;;;;7.88;4.45;;;;;;;31.80;55.68;100518.47;30860434;28;20051;-75
2023/07/17 06:21:55;;;;;;;6.38;3.30;;;;;;;32.53;51.01;100525.31;30820476;28;1277756;-75
2023/07/17 06:36:57;;;;;;;9.13;3.10;;;;;;;32.82;45.73;100509.78;30868022;28;20057;-75
2023/07/17 06:51:59;;;;;;;4.43;2.78;;;;;;;33.41;43.83;100503.81;30867582;28;20058;-75
2023/07/17 07:07:01;;;;;;;4.13;2.47;;;;;;;33.92;40.92;100505.44;30865459;28;20089;-74
2023/07/17 07:22:03;;;;;;;5.93;2.45;;;;;;;34.25;38.89;100500.53;30866534;28;20083;-74
2023/07/17 07:37:06;;;;;;;3.90;2.35;;;;;;;34.75;38.85;100492.75;30850084;28;20160;-73
2023/07/17 07:52:08;;;;;;;6.10;2.50;;;;;;;35.03;35.98;100483.09;30852147;28;20062;-75
2023/07/17 08:07:10;;;;;;;2.03;1.65;;;;;;;35.63;33.93;100474.47;30855872;28;20074;-74
2023/07/17 08:22:12;;;;;;;2.13;1.38;;;;;;;35.85;33.45;100474.19;30854318;28;20158;-76
2023/07/17 08:37:14;;;;;;;4.75;1.85;;;;;;;36.21;33.29;100464.94;30851379;28;20366;-76
2023/07/17 08:52:18;;;;;;;3.13;1.70;;;;;;;36.88;32.96;100467.16;30855595;28;20129;-75
2023/07/17 09:07:20;;;;;;;6.15;2.50;;;;;;;37.15;33.37;100466.25;30865665;28;20046;-75
2023/07/17 09:22:22;;;;;;;6.07;2.97;;;;;;;37.38;32.94;100455.22;30871223;28;20066;-75
2023/07/17 09:37:30;;;;;;;4.25;2.22;;;;;;;37.92;31.20;100449.13;30872469;28;20059;-75
2023/07/17 09:52:32;;;;;;;5.13;2.60;;;;;;;38.13;31.81;100435.00;30870333;28;20501;-73
2023/07/17 10:07:37;;;;;;;3.83;2.90;;;;;;;39.14;30.81;100428.91;30866195;28;20090;-74
2023/07/17 10:22:44;;;;;;;10.38;6.55;;;;;;;38.94;31.41;100427.59;30864449;28;20080;-75
2023/07/17 10:37:46;;;;;;;9.70;3.37;;;;;;;38.38;31.87;100414.72;30865429;28;20124;-75
2023/07/17 10:52:48;;;;;;;5.05;2.90;;;;;;;38.27;33.05;100400.47;30865166;28;20476;-77
2023/07/17 11:07:51;;;;;;;8.82;3.20;;;;;;;37.12;34.14;100393.88;30863806;28;20145;-73
2023/07/17 11:22:53;;;;;;;4.28;2.80;;;;;;;38.72;33.03;100372.97;30861070;28;20104;-75
2023/07/17 11:37:55;;;;;;;4.80;2.85;;;;;;;37.61;32.45;100363.34;30855752;28;20051;-76
2023/07/17 11:53:08;;;;;;;5.18;2.05;;;;;;;36.13;33.92;100359.03;30855867;28;20097;-76
2023/07/17 12:08:10;;;;;;;5.35;2.60;;;;;;;35.80;35.11;100345.28;30855108;28;20525;-76
2023/07/17 12:23:13;;;;;;;5.18;2.90;;;;;;;35.85;35.06;100337.88;30851293;28;20082;-75
2023/07/17 12:38:15;;;;;;;2.97;2.67;;;;;;;35.34;35.96;100331.13;30857433;28;20051;-77
2023/07/17 12:53:17;;;;;;;8.75;3.50;;;;;;;35.10;35.80;100317.91;30878809;28;20484;-74
2023/07/17 13:08:20;;;;;;;4.97;2.47;;;;;;;35.15;35.75;100316.91;30872878;28;20054;-75
2023/07/17 13:23:22;;;;;;;22.30;17.27;;;;;;;34.86;36.41;100300.56;30873262;28;20137;-76
2023/07/17 13:38:24;;;;;;;6.00;3.05;;;;;;;34.77;36.32;100298.38;30875037;28;20110;-76
2023/07/17 13:53:26;;;;;;;10.07;8.05;;;;;;;34.67;37.29;100289.13;30867556;28;20466;-76
2023/07/17 14:08:28;;;;;;;6.55;3.35;;;;;;;34.32;37.63;100270.78;30871420;28;20146;-76
2023/07/17 14:23:30;;;;;;;4.10;2.70;;;;;;;34.14;38.28;100253.84;30870391;28;20086;-77
2023/07/17 14:38:36;;;;;;;3.95;2.55;;;;;;;33.68;38.07;100255.63;30869932;28;20050;-78
2023/07/17 14:53:38;;;;;;;6.07;2.70;;;;;;;33.97;38.16;100248.22;30866577;28;20046;-75
2023/07/17 15:08:40;;;;;;;4.28;3.08;;;;;;;33.79;38.24;100238.25;30863051;28;20055;-75
2023/07/17 15:23:42;;;;;;;5.97;2.85;;;;;;;33.49;38.81;100228.78;30861675;28;20501;-75
2023/07/17 15:38:44;;;;;;;4.18;3.15;;;;;;;33.41;39.60;100216.81;30851191;28;20418;-76
2023/07/17 15:53:46;;;;;;;4.53;3.15;;;;;;;33.44;39.36;100214.94;30853514;28;20153;-75
2023/07/17 16:08:48;;;;;;;4.68;3.13;;;;;;;33.26;40.21;100216.97;30859420;28;20169;-76
2023/07/17 16:23:50;;;;;;;7.85;3.17;;;;;;;33.11;40.54;100231.84;30880061;28;20087;-75
2023/07/17 16:38:52;;;;;;;4.05;2.88;;;;;;;32.99;41.22;100219.56;30877669;28;20481;-76
2023/07/17 16:53:54;;;;;;;5.07;3.40;;;;;;;32.92;41.11;100228.03;30878385;28;20074;-78
2023/07/17 17:09:13;;;;;;;7.38;4.50;;;;;;;32.77;41.71;100235.25;30882379;28;20064;-77
2023/07/17 17:24:15;;;;;;;12.75;4.10;;;;;;;32.48;41.68;100242.50;30877998;28;20507;-78
2023/07/17 17:39:17;;;;;;;5.95;4.03;;;;;;;32.27;42.56;100250.44;30873304;28;20142;-76
2023/07/17 17:54:19;;;;;;;7.07;3.70;;;;;;;32.02;43.06;100259.47;30863425;28;20058;-77
2023/07/17 18:09:21;;;;;;;8.13;3.80;;;;;;;31.90;42.84;100263.97;30872747;28;20129;-75
2023/07/17 18:24:23;;;;;;;7.72;3.88;;;;;;;31.88;42.62;100261.00;30865469;28;20043;-76
2023/07/17 18:39:27;;;;;;;11.45;4.53;;;;;;;31.82;42.63;100252.03;30867952;28;20090;-78
2023/07/17 18:54:29;;;;;;;7.57;4.28;;;;;;;31.38;43.33;100271.09;30863981;28;20057;-77
2023/07/17 19:09:31;;;;;;;10.27;4.93;;;;;;;31.35;43.15;100255.38;30862566;28;20059;-75
2023/07/17 19:24:33;;;;;;;10.40;5.80;;;;;;;31.06;43.96;100265.97;30860857;28;20079;-77
2023/07/17 19:39:36;;;;;;;18.98;6.47;;;;;;;30.76;44.67;100272.97;30851931;28;20074;-76
2023/07/17 19:54:38;;;;;;;14.02;6.72;;;;;;;30.56;45.98;100273.84;30860266;28;20051;-76
2023/07/17 20:09:41;;;;;;;8.90;5.28;;;;;;;30.33;46.13;100256.91;30858928;28;20064;-75
2023/07/17 20:24:43;;;;;;;14.05;4.30;;;;;;;30.11;47.16;100269.47;30850854;28;20086;-77
2023/07/17 20:39:44;;;;;;;5.72;3.72;;;;;;;29.61;47.13;100273.56;30854234;28;20121;-72
2023/07/17 20:54:47;;;;;;;;;;;;;;;29.62;47.19;100275.06;30851938;28;20443;-72
2023/07/17 21:09:49;;;;;;;8.83;3.40;;;;;;;29.64;46.64;100257.75;30872816;28;20020;-73
2023/07/17 21:24:51;;;;;;;;;;;;;;;29.50;47.01;100263.44;30902959;28;20050;-73
2023/07/17 21:39:53;;;;;;;7.45;3.35;;;;;;;29.17;47.80;100253.03;30871805;28;19948;-72
2023/07/17 21:54:55;;;;;;;6.82;3.50;;;;;;;28.97;48.22;100245.38;30870742;28;20130;-74
2023/07/17 22:09:57;;;;;;;11.57;4.28;;;;;;;28.64;49.35;100236.41;30865623;28;20078;-74
2023/07/17 22:25:00;;;;;;;12.30;4.20;;;;;;;28.72;49.19;100231.69;30867794;28;20155;-73
2023/07/17 22:40:02;;;;;;;14.70;8.85;;;;;;;28.24;50.84;100235.00;30870077;28;20055;-73
2023/07/17 22:55:07;;;;;;;11.93;6.47;;;;;;;28.22;52.04;100241.09;30863950;28;20057;-72
2023/07/17 23:10:10;;;;;;;11.18;5.63;;;;;;;27.58;53.47;100230.09;30864590;28;20054;-73
2023/07/17 23:25:13;;;;;;;14.10;5.40;;;;;;;27.70;53.85;100213.91;30857872;28;20485;-72
2023/07/17 23:40:15;;;;;;;13.57;6.10;;;;;;;27.35;54.96;100196.25;30857372;28;20049;-73
2023/07/17 23:55:17;;;;;;;24.80;6.50;;;;;;;26.83;57.73;100199.59;30861762;28;20073;-73
